Time;durP1;ratioP1;P1;durP2;ratioP2;P2;SDS_P1;SDS_P2;PMS_P1;PMS_P2;Temp;Humidity;BMP_temperature;BMP_pressure;BME280_temperature;BME280_humidity;BME280_pressure;Samples;Min_cycle;Max_cycle;Signal;HPM_P1;HPM_P2
2023/10/12 00:01:11;;;;;;;19.67;6.30;;;19.20;99.90;;;;;;5036541;28;20463;-79
2023/10/12 00:03:38;;;;;;;15.95;6.57;;;19.30;99.90;;;;;;5035705;28;20021;-78
2023/10/12 00:06:06;;;;;;;16.67;6.43;;;19.30;99.90;;;;;;5035959;28;20040;-78
2023/10/12 00:08:32;;;;;;;16.02;6.82;;;19.20;99.90;;;;;;5036440;28;20033;-78
2023/10/12 00:10:58;;;;;;;13.15;6.57;;;19.30;99.90;;;;;;5035552;28;20083;-79
2023/10/12 00:13:28;;;;;;;17.52;6.47;;;19.20;99.90;;;;;;5035617;28;20033;-78
2023/10/12 00:15:56;;;;;;;15.70;6.22;;;19.30;99.90;;;;;;5036056;28;20142;-78
2023/10/12 00:18:22;;;;;;;19.17;6.95;;;19.30;99.90;;;;;;5035952;28;20029;-79
2023/10/12 00:20:53;;;;;;;20.33;7.10;;;19.30;99.90;;;;;;5036122;28;20376;-78
2023/10/12 00:23:19;;;;;;;18.55;6.88;;;19.20;99.90;;;;;;5035938;28;20499;-79
2023/10/12 00:25:47;;;;;;;17.35;6.03;;;19.30;99.90;;;;;;5035248;28;20026;-78
2023/10/12 00:28:18;;;;;;;20.25;6.95;;;19.40;99.90;;;;;;5035206;28;20112;-79
2023/10/12 00:30:49;;;;;;;17.88;6.55;;;19.30;99.90;;;;;;5036143;28;20495;-78
2023/10/12 00:33:17;;;;;;;14.13;6.20;;;19.40;99.90;;;;;;5035993;28;20040;-78
2023/10/12 00:35:48;;;;;;;16.95;6.57;;;19.40;99.90;;;;;;5036024;28;20025;-79
2023/10/12 00:38:17;;;;;;;18.98;6.57;;;19.40;99.90;;;;;;5035743;28;20112;-79
2023/10/12 00:40:55;;;;;;;16.98;6.72;;;19.40;99.90;;;;;;5034952;28;20428;-79
2023/10/12 00:43:21;;;;;;;12.38;6.07;;;19.40;99.90;;;;;;5035586;28;20108;-78
2023/10/12 00:45:47;;;;;;;20.48;6.43;;;19.40;99.90;;;;;;5035764;28;20049;-78
2023/10/12 00:48:16;;;;;;;12.82;6.05;;;19.30;99.90;;;;;;5036061;28;20033;-78
2023/10/12 00:50:44;;;;;;;14.30;6.78;;;19.40;99.90;;;;;;5035745;28;20494;-78
2023/10/12 00:53:15;;;;;;;18.35;6.82;;;19.30;99.90;;;;;;5035791;28;20075;-79
2023/10/12 00:55:42;;;;;;;17.52;6.32;;;19.30;99.90;;;;;;5035561;28;20091;-79
2023/10/12 00:58:08;;;;;;;19.48;6.13;;;19.30;99.90;;;;;;5035246;28;20028;-79
2023/10/12 01:00:51;;;;;;;20.48;6.50;;;19.30;99.90;;;;;;5035381;28;20384;-79
2023/10/12 01:08:47;;;;;;;17.52;6.50;;;19.30;99.90;;;;;;5071176;28;20357;-70
2023/10/12 01:11:19;;;;;;;17.60;6.63;;;19.30;99.90;;;;;;5071484;28;20025;-70
2023/10/12 01:13:49;;;;;;;13.57;6.97;;;19.20;1.00;;;;;;5071256;28;20115;-70
2023/10/12 01:16:22;;;;;;;15.90;6.20;;;19.00;1.00;;;;;;5071497;28;20112;-70
2023/10/12 01:18:50;;;;;;;15.88;6.93;;;18.90;1.00;;;;;;5071510;28;20021;-69
2023/10/12 01:21:16;;;;;;;20.02;7.43;;;18.90;1.00;;;;;;5070209;28;20025;-70
2023/10/12 01:23:50;;;;;;;17.67;6.95;;;18.90;1.00;;;;;;5071020;28;20029;-70
2023/10/12 01:26:16;;;;;;;17.67;6.28;;;19.00;1.00;;;;;;5070941;28;20082;-70
2023/10/12 01:28:45;;;;;;;18.13;7.15;;;19.00;1.00;;;;;;5070455;28;20458;-70
2023/10/12 01:31:11;;;;;;;13.55;6.55;;;18.90;1.00;;;;;;5071197;28;20017;-70
2023/10/12 01:33:41;;;;;;;17.73;6.68;;;18.90;1.00;;;;;;5070759;28;20043;-70
2023/10/12 01:36:07;;;;;;;19.13;7.40;;;18.80;1.00;;;;;;5070888;28;20021;-70
2023/10/12 01:38:37;;;;;;;15.43;7.07;;;18.80;1.00;;;;;;5070723;28;20434;-70
2023/10/12 01:41:09;;;;;;;12.13;7.20;;;18.70;1.00;;;;;;5070944;28;20050;-72
2023/10/12 01:43:36;;;;;;;17.67;7.85;;;18.70;1.00;;;;;;5070384;28;20485;-70
2023/10/12 01:46:09;;;;;;;17.90;7.43;;;18.70;1.00;;;;;;5070824;28;20040;-70
2023/10/12 01:48:34;;;;;;;;;;;18.70;1.00;;;;;;5070978;28;20413;-70
2023/10/12 01:51:04;;;;;;;16.98;7.18;;;18.60;1.00;;;;;;5069530;28;19905;-70
2023/10/12 01:53:32;;;;;;;18.65;8.50;;;18.60;1.00;;;;;;5070347;28;20032;-70
2023/10/12 01:55:59;;;;;;;22.83;9.20;;;18.50;1.00;;;;;;5070659;28;20037;-70
2023/10/12 01:58:28;;;;;;;17.70;9.10;;;18.40;1.00;;;;;;5070629;28;20027;-70
2023/10/12 02:00:55;;;;;;;17.42;9.40;;;18.30;1.00;;;;;;5070539;28;20039;-70
2023/10/12 02:03:32;;;;;;;19.25;9.43;;;18.20;1.00;;;;;;5069730;28;20043;-70
2023/10/12 02:05:59;;;;;;;22.15;10.45;;;18.00;1.00;;;;;;5070276;28;20437;-70
2023/10/12 02:08:32;;;;;;;18.92;10.48;;;18.00;9.00;;;;;;5069170;28;20049;-70
2023/10/12 02:13:47;;;;;;;18.38;10.43;;;17.90;20.90;;;;;;5069077;28;20422;-69
2023/10/12 02:16:15;;;;;;;17.30;10.35;;;17.70;54.60;;;;;;5069904;28;20029;-70
2023/10/12 02:18:42;;;;;;;22.55;11.10;;;17.60;82.50;;;;;;5064653;28;20025;-70
2023/10/12 02:21:11;;;;;;;25.48;12.07;;;17.50;99.90;;;;;;5056282;28;20040;-69
2023/10/12 02:23:38;;;;;;;23.95;13.48;;;17.30;99.90;;;;;;5056610;28;20032;-69
2023/10/12 02:26:28;;;;;;;31.05;13.90;;;17.20;99.90;;;;;;5056935;28;20028;-69
2023/10/12 02:28:53;;;;;;;23.00;14.48;;;17.10;99.90;;;;;;5055739;28;20123;-70
2023/10/12 02:31:20;;;;;;;27.83;15.57;;;17.00;99.90;;;;;;5056361;28;20021;-70
2023/10/12 02:33:46;;;;;;;29.90;16.10;;;16.90;99.90;;;;;;5056699;28;20029;-70
2023/10/12 02:36:13;;;;;;;30.52;17.73;;;16.80;99.90;;;;;;5055981;28;20027;-70
2023/10/12 02:38:41;;;;;;;30.20;17.73;;;16.70;99.90;;;;;;5056546;28;20467;-70
2023/10/12 02:41:12;;;;;;;32.15;18.02;;;16.70;99.90;;;;;;5055899;28;20075;-70
2023/10/12 02:43:43;;;;;;;33.90;18.00;;;16.60;99.90;;;;;;5056407;28;20370;-70
2023/10/12 02:46:21;;;;;;;31.08;18.65;;;16.60;99.90;;;;;;5056232;28;20115;-70
2023/10/12 02:48:47;;;;;;;30.65;19.23;;;16.60;99.90;;;;;;5056207;28;20028;-70
2023/10/12 02:51:16;;;;;;;35.88;19.50;;;16.50;99.90;;;;;;5055146;28;20028;-69
2023/10/12 02:53:44;;;;;;;43.97;21.55;;;16.50;99.90;;;;;;5056318;28;20029;-71
2023/10/12 02:56:10;;;;;;;39.50;22.15;;;16.50;99.90;;;;;;5056341;28;20017;-71
2023/10/12 02:58:35;;;;;;;38.58;23.40;;;16.50;99.90;;;;;;5055561;28;20029;-70
2023/10/12 03:01:19;;;;;;;34.85;23.25;;;16.40;99.90;;;;;;5055911;28;20360;-69
2023/10/12 03:03:54;;;;;;;;;;;16.40;99.90;;;;;;5056279;28;20041;-69
2023/10/12 03:06:23;;;;;;;44.55;24.13;;;16.40;99.90;;;;;;5055686;28;20290;-69
2023/10/12 03:09:36;;;;;;;45.03;25.65;;;16.40;99.90;;;;;;5056035;28;20085;-69
2023/10/12 03:11:36;;;;;;;40.17;25.02;;;16.30;99.90;;;;;;5054889;28;20025;-70
2023/10/12 03:14:26;;;;;;;43.00;23.85;;;16.30;99.90;;;;;;5055580;28;20049;-70
2023/10/12 03:16:48;;;;;;;47.00;26.90;;;16.20;99.90;;;;;;5054826;28;20069;-70
2023/10/12 03:22:04;;;;;;;44.25;27.20;;;16.20;99.90;;;;;;5071349;28;20781;-70
2023/10/12 03:24:43;;;;;;;48.00;28.58;;;16.20;99.90;;;;;;5071286;28;20390;-70
2023/10/12 03:27:13;;;;;;;53.15;29.58;;;16.10;99.90;;;;;;5070772;28;20470;-70
2023/10/12 03:30:02;;;;;;;55.88;30.02;;;16.10;99.90;;;;;;5071556;28;20031;-70
2023/10/12 03:32:25;;;;;;;46.05;29.05;;;16.10;99.90;;;;;;5070359;28;20588;-70
2023/10/12 03:43:08;;;;;;;58.08;30.50;;;16.00;99.90;;;;;;5110942;28;20482;-71
2023/10/12 03:45:34;;;;;;;56.25;30.50;;;16.00;99.90;;;;;;5111558;28;20016;-70
2023/10/12 03:48:04;;;;;;;55.72;30.23;;;15.80;99.90;;;;;;5111845;28;20039;-70
2023/10/12 03:50:35;;;;;;;52.75;29.85;;;15.80;99.90;;;;;;5111946;28;20369;-71
2023/10/12 03:53:05;;;;;;;54.33;32.47;;;15.80;99.90;;;;;;5112190;28;20403;-71
2023/10/12 03:55:33;;;;;;;59.45;34.38;;;15.80;99.90;;;;;;5111699;28;20055;-71
2023/10/12 03:58:00;;;;;;;59.00;34.17;;;15.90;99.90;;;;;;5111367;28;20024;-70
2023/10/12 04:00:34;;;;;;;63.95;35.55;;;15.80;99.90;;;;;;5111226;28;20073;-71
2023/10/12 04:03:06;;;;;;;62.03;35.10;;;15.80;99.90;;;;;;5110968;28;20485;-70
2023/10/12 04:21:27;;;;;;;57.28;34.13;;;15.70;99.90;;;;;;5090660;28;20616;-68
2023/10/12 04:27:09;;;;;;;55.75;33.75;;;15.70;99.90;;;;;;5070814;28;20387;-69
2023/10/12 04:29:32;;;;;;;53.28;31.70;;;15.70;99.90;;;;;;5070462;28;20033;-69
2023/10/12 04:32:09;;;;;;;57.70;32.15;;;15.70;99.90;;;;;;5071176;28;20031;-69
2023/10/12 04:34:46;;;;;;;52.50;31.45;;;15.60;99.90;;;;;;5071065;28;20028;-69
2023/10/12 04:37:17;;;;;;;52.15;29.75;;;15.70;99.90;;;;;;5070315;28;20017;-69
2023/10/12 04:39:49;;;;;;;58.35;30.48;;;15.60;99.90;;;;;;5071320;28;20028;-69
2023/10/12 04:42:26;;;;;;;50.53;30.00;;;15.60;99.90;;;;;;5071257;28;20021;-69
2023/10/12 04:45:03;;;;;;;45.53;28.38;;;15.60;99.90;;;;;;5071028;28;20374;-69
2023/10/12 04:47:30;;;;;;;48.55;28.35;;;15.60;99.90;;;;;;5070748;28;20027;-69
2023/10/12 04:49:57;;;;;;;47.88;27.85;;;15.50;99.90;;;;;;5070526;28;20024;-69
2023/10/12 04:52:26;;;;;;;49.92;28.70;;;15.50;99.90;;;;;;5070681;28;20021;-69
2023/10/12 04:55:00;;;;;;;47.42;27.38;;;15.50;99.90;;;;;;5070716;28;20037;-68
2023/10/12 04:57:27;;;;;;;50.63;27.67;;;15.50;99.90;;;;;;5071006;28;20025;-68
2023/10/12 05:00:11;;;;;;;50.20;29.13;;;15.50;99.90;;;;;;5070320;28;20025;-69
2023/10/12 05:02:54;;;;;;;48.97;29.20;;;15.40;99.90;;;;;;5070625;28;20120;-69
2023/10/12 05:07:53;;;;;;;52.95;29.33;;;15.50;99.90;;;;;;5070080;28;20031;-69
2023/10/12 05:13:22;;;;;;;55.00;30.02;;;15.40;99.90;;;;;;5071158;28;20383;-68
2023/10/12 05:15:56;;;;;;;54.60;30.65;;;15.40;99.90;;;;;;5071527;28;20478;-68
2023/10/12 05:18:24;;;;;;;50.90;29.13;;;15.40;99.90;;;;;;5071238;28;20470;-68
2023/10/12 05:20:51;;;;;;;56.90;32.03;;;15.40;99.90;;;;;;5070838;28;20031;-68
2023/10/12 05:23:17;;;;;;;58.90;31.38;;;15.40;99.90;;;;;;5070857;28;20440;-68
2023/10/12 05:28:27;;;;;;;53.03;29.55;;;15.40;99.90;;;;;;5070556;28;20031;-68
2023/10/12 05:30:55;;;;;;;56.65;30.75;;;15.40;99.90;;;;;;5071223;28;20070;-68
2023/10/12 05:36:09;;;;;;;54.50;30.55;;;15.40;99.90;;;;;;5071039;28;20025;-68
2023/10/12 05:38:36;;;;;;;58.88;31.17;;;15.30;99.90;;;;;;5070911;28;20489;-68
2023/10/12 05:41:04;;;;;;;59.60;30.20;;;15.30;99.90;;;;;;5070710;28;20027;-68
2023/10/12 05:43:33;;;;;;;56.03;31.17;;;15.30;99.90;;;;;;5070748;28;20386;-68
2023/10/12 05:46:04;;;;;;;62.90;31.00;;;15.30;99.90;;;;;;5071018;28;20025;-68
2023/10/12 05:48:33;;;;;;;60.60;31.83;;;15.30;99.90;;;;;;5070359;28;20053;-68
2023/10/12 05:50:59;;;;;;;55.25;31.23;;;15.30;99.90;;;;;;5070242;28;20077;-68
2023/10/12 05:53:26;;;;;;;54.85;31.45;;;15.30;99.90;;;;;;5070367;28;20527;-68
2023/10/12 05:55:52;;;;;;;57.25;31.38;;;15.30;99.90;;;;;;5070735;28;20025;-68
2023/10/12 05:58:18;;;;;;;57.45;30.23;;;15.30;99.90;;;;;;5070280;28;20028;-68
2023/10/12 06:00:45;;;;;;;61.38;30.80;;;15.30;99.90;;;;;;5070623;28;20025;-68
2023/10/12 06:03:15;;;;;;;62.10;30.88;;;15.10;99.90;;;;;;5070339;28;20078;-69
2023/10/12 06:05:44;;;;;;;56.13;29.67;;;15.30;99.90;;;;;;5069346;28;20043;-69
2023/10/12 06:08:10;;;;;;;53.97;29.38;;;15.30;99.90;;;;;;5069351;28;20029;-69
2023/10/12 06:10:41;;;;;;;53.17;30.65;;;15.20;99.90;;;;;;5069916;28;20035;-68
2023/10/12 06:13:09;;;;;;;54.60;31.02;;;15.30;99.90;;;;;;5049044;28;20041;-68
2023/10/12 06:15:40;;;;;;;56.00;29.70;;;15.30;99.90;;;;;;5049665;28;20026;-68
2023/10/12 06:18:10;;;;;;;64.47;31.33;;;15.30;99.90;;;;;;5050319;28;20470;-68
2023/10/12 06:20:40;;;;;;;52.40;30.98;;;15.20;99.90;;;;;;5049394;28;20116;-69
2023/10/12 06:23:08;;;;;;;56.45;28.58;;;15.20;99.90;;;;;;5043730;28;20067;-68
2023/10/12 06:25:37;;;;;;;53.28;28.77;;;15.20;99.90;;;;;;5032949;28;20553;-68
2023/10/12 06:28:06;;;;;;;58.83;29.35;;;15.30;99.90;;;;;;5029267;28;20041;-68
2023/10/12 06:30:31;;;;;;;46.25;26.90;;;15.30;99.90;;;;;;5037831;28;20028;-68
2023/10/12 06:32:59;;;;;;;46.80;27.02;;;15.30;99.90;;;;;;5035844;28;20033;-68
2023/10/12 06:35:25;;;;;;;46.85;27.88;;;15.30;99.90;;;;;;5040570;28;20028;-68
2023/10/12 06:43:57;;;;;;;49.78;25.10;;;15.30;99.90;;;;;;5075625;28;20403;-69
2023/10/12 06:45:51;;;;;;;50.53;25.42;;;15.30;99.90;;;;;;5052437;28;20049;-69
2023/10/12 06:51:02;;;;;;;45.80;25.70;;;15.30;99.90;;;;;;5074394;28;20042;-70
2023/10/12 06:53:34;;;;;;;42.05;23.05;;;15.30;99.90;;;;;;5066315;28;20020;-68
2023/10/12 06:56:15;;;;;;;45.25;22.65;;;15.30;99.90;;;;;;5060142;28;20178;-69
2023/10/12 06:58:43;;;;;;;37.53;21.42;;;15.30;99.90;;;;;;5061516;28;20491;-69
2023/10/12 07:01:18;;;;;;;41.80;21.98;;;15.30;99.90;;;;;;5061580;28;20398;-69
2023/10/12 07:03:48;;;;;;;47.00;23.52;;;15.30;99.90;;;;;;5059877;28;20380;-69
2023/10/12 07:06:15;;;;;;;37.38;22.05;;;15.30;99.90;;;;;;5052772;28;20492;-70
2023/10/12 07:08:42;;;;;;;40.38;22.30;;;15.30;99.90;;;;;;5061284;28;20029;-69
2023/10/12 07:11:11;;;;;;;44.92;21.52;;;15.30;99.90;;;;;;5061928;28;20034;-69
2023/10/12 07:13:39;;;;;;;45.17;21.67;;;15.40;99.90;;;;;;5058687;28;20037;-69
2023/10/12 07:16:08;;;;;;;38.63;19.85;;;15.40;99.90;;;;;;5055428;28;20087;-69
2023/10/12 07:18:35;;;;;;;34.80;19.40;;;15.40;99.90;;;;;;5066497;28;20086;-69
2023/10/12 07:21:00;;;;;;;42.22;19.63;;;15.40;99.90;;;;;;5061760;28;20461;-69
2023/10/12 07:23:42;;;;;;;45.05;20.55;;;15.40;99.90;;;;;;5066023;28;20124;-69
2023/10/12 07:26:12;;;;;;;34.50;18.98;;;15.40;99.90;;;;;;5063444;28;20025;-69
2023/10/12 07:28:41;;;;;;;34.95;18.98;;;15.40;99.90;;;;;;5058874;28;20024;-69
2023/10/12 07:34:01;;;;;;;37.83;19.98;;;15.40;99.90;;;;;;5103781;27;20468;-68
2023/10/12 07:36:52;;;;;;;31.50;16.80;;;15.50;99.90;;;;;;5090651;28;20106;-69
2023/10/12 07:39:17;;;;;;;34.67;16.58;;;15.50;99.90;;;;;;5085474;28;20520;-68
2023/10/12 07:41:52;;;;;;;29.80;16.63;;;15.40;99.90;;;;;;5084524;28;20385;-68
2023/10/12 07:44:18;;;;;;;32.88;16.92;;;15.50;99.90;;;;;;5084757;28;20471;-69
2023/10/12 07:46:43;;;;;;;34.08;16.83;;;15.40;99.90;;;;;;5080867;28;21411;-69
2023/10/12 07:49:47;;;;;;;30.00;16.95;;;15.50;99.90;;;;;;5086168;28;20032;-69
2023/10/12 07:52:23;;;;;;;32.90;17.25;;;15.50;99.90;;;;;;5085724;28;20040;-68
2023/10/12 07:54:54;;;;;;;34.10;17.27;;;15.50;99.90;;;;;;5086558;28;20028;-68
2023/10/12 07:57:22;;;;;;;36.50;17.45;;;15.50;99.90;;;;;;5087415;28;20112;-68
2023/10/12 08:05:43;;;;;;;31.30;16.40;;;15.60;99.90;;;;;;5087647;27;20407;-70
2023/10/12 08:08:09;;;;;;;33.75;15.07;;;15.70;99.90;;;;;;5058697;28;20071;-70
2023/10/12 08:15:58;;;;;;;27.73;16.58;;;15.80;99.90;;;;;;5065725;28;20460;-69
2023/10/12 08:21:23;;;;;;;26.73;14.48;;;15.90;99.90;;;;;;5061825;28;20037;-68
2023/10/12 08:23:56;;;;;;;28.88;15.57;;;15.90;99.90;;;;;;5060733;28;20424;-69
2023/10/12 08:26:35;;;;;;;30.10;15.38;;;16.00;99.90;;;;;;5051583;28;20041;-68
2023/10/12 08:29:09;;;;;;;33.28;17.05;;;16.00;99.90;;;;;;5056090;28;20025;-69
2023/10/12 08:31:43;;;;;;;27.23;14.70;;;16.00;99.90;;;;;;5063282;28;20380;-68
2023/10/12 08:39:49;;;;;;;26.98;13.65;;;16.00;99.90;;;;;;5064248;28;20035;-68
2023/10/12 08:45:15;;;;;;;27.65;13.73;;;16.10;99.90;;;;;;5105939;27;20775;-71
2023/10/12 08:47:51;;;;;;;26.63;13.95;;;16.10;99.90;;;;;;5086866;28;20026;-69
2023/10/12 08:52:59;;;;;;;33.75;15.07;;;16.00;99.90;;;;;;5105730;27;20871;-68
2023/10/12 08:55:31;;;;;;;28.48;15.30;;;16.00;99.90;;;;;;5096867;28;20035;-67
2023/10/12 08:58:20;;;;;;;34.45;15.77;;;16.00;99.90;;;;;;5096474;28;20028;-66
2023/10/12 09:03:38;;;;;;;28.23;15.93;;;16.00;99.90;;;;;;5097518;28;20028;-67
2023/10/12 09:06:36;;;;;;;37.88;16.33;;;15.90;99.90;;;;;;5104836;28;20035;-69
2023/10/12 09:08:51;;;;;;;30.73;16.65;;;15.90;99.90;;;;;;5108076;28;20082;-66
2023/10/12 09:11:17;;;;;;;34.15;17.35;;;15.90;99.90;;;;;;5100823;28;20068;-66
2023/10/12 09:13:46;;;;;;;30.70;17.25;;;15.90;99.90;;;;;;5096063;28;20039;-69
2023/10/12 09:16:14;;;;;;;34.72;16.83;;;15.90;99.90;;;;;;5092293;28;20016;-69
2023/10/12 09:18:44;;;;;;;32.70;17.33;;;15.90;99.90;;;;;;5106374;28;20020;-71
2023/10/12 09:21:25;;;;;;;29.85;17.15;;;16.00;99.90;;;;;;5094088;28;20036;-69
2023/10/12 09:24:05;;;;;;;34.78;17.83;;;16.00;99.90;;;;;;5105122;28;20035;-70
2023/10/12 09:26:31;;;;;;;27.35;16.42;;;16.10;99.90;;;;;;5100254;28;20026;-69
2023/10/12 09:29:07;;;;;;;31.90;16.77;;;16.10;99.90;;;;;;5103563;28;20036;-70
2023/10/12 09:36:55;;;;;;;30.95;16.02;;;16.20;99.90;;;;;;5097308;28;20085;-68
2023/10/12 09:39:24;;;;;;;29.23;16.88;;;16.20;99.90;;;;;;5100470;28;20036;-68
2023/10/12 09:42:44;;;;;;;32.38;16.48;;;16.20;99.90;;;;;;5099539;28;20090;-68
2023/10/12 09:44:39;;;;;;;27.50;15.85;;;16.20;99.90;;;;;;5090322;28;20634;-69
2023/10/12 09:47:12;;;;;;;33.70;15.43;;;16.20;99.90;;;;;;5100150;28;20381;-68
2023/10/12 09:49:47;;;;;;;29.75;16.83;;;16.20;99.90;;;;;;5102437;28;20135;-67
2023/10/12 09:52:13;;;;;;;34.42;16.33;;;16.20;99.90;;;;;;5096542;28;20442;-68
2023/10/12 09:55:07;;;;;;;29.88;16.15;;;16.20;99.90;;;;;;5104535;28;20157;-69
2023/10/12 09:57:36;;;;;;;29.02;15.68;;;16.20;99.90;;;;;;5108445;28;20027;-76
2023/10/12 10:00:18;;;;;;;39.22;17.10;;;16.30;99.90;;;;;;5094610;28;20086;-70
2023/10/12 10:02:49;;;;;;;34.53;16.63;;;16.40;99.90;;;;;;5090032;28;20043;-71
2023/10/12 10:07:56;;;;;;;34.22;17.00;;;16.50;99.90;;;;;;5075893;28;20028;-71
2023/10/12 10:10:31;;;;;;;36.40;16.60;;;16.50;99.90;;;;;;5083675;28;20081;-70
2023/10/12 10:13:00;;;;;;;30.52;16.10;;;16.50;99.90;;;;;;5077485;28;20056;-70
2023/10/12 10:15:36;;;;;;;30.67;15.52;;;16.60;99.90;;;;;;5076149;28;20034;-71
2023/10/12 10:18:04;;;;;;;33.05;15.52;;;16.60;99.90;;;;;;5080980;28;20036;-70
2023/10/12 10:20:46;;;;;;;33.30;14.50;;;16.70;99.90;;;;;;5082089;28;20024;-70
2023/10/12 10:23:14;;;;;;;22.75;13.80;;;16.50;99.90;;;;;;5084440;28;20056;-69
2023/10/12 10:25:45;;;;;;;29.02;14.85;;;16.60;99.90;;;;;;5086873;28;20028;-70
2023/10/12 10:28:18;;;;;;;26.50;14.45;;;16.60;99.90;;;;;;5079546;28;20656;-69
2023/10/12 10:30:50;;;;;;;33.83;14.57;;;16.60;99.90;;;;;;5084056;28;20047;-70
2023/10/12 10:33:22;;;;;;;24.25;13.60;;;16.50;99.90;;;;;;5087817;28;20043;-69
2023/10/12 10:36:00;;;;;;;30.25;14.90;;;16.50;99.90;;;;;;5087486;28;20032;-70
2023/10/12 10:38:32;;;;;;;30.23;14.32;;;16.50;99.90;;;;;;5083143;28;20028;-69
2023/10/12 10:41:07;;;;;;;28.27;14.82;;;16.50;99.90;;;;;;5088256;28;20115;-69
2023/10/12 10:43:37;;;;;;;27.83;14.45;;;16.40;99.90;;;;;;5087022;28;20425;-69
2023/10/12 10:46:10;;;;;;;30.50;15.90;;;16.40;99.90;;;;;;5075343;28;20131;-69
2023/10/12 10:48:38;;;;;;;33.42;15.38;;;16.30;99.90;;;;;;5082061;28;20032;-68
2023/10/12 10:51:10;;;;;;;34.60;17.00;;;16.20;99.90;;;;;;5081652;28;20413;-69
2023/10/12 10:53:38;;;;;;;26.25;16.40;;;16.20;99.90;;;;;;5085426;28;20112;-68
2023/10/12 10:56:12;;;;;;;26.75;16.13;;;16.20;99.90;;;;;;5084721;28;20119;-68
2023/10/12 10:58:37;;;;;;;36.85;17.08;;;16.20;99.90;;;;;;5077109;28;20048;-68
2023/10/12 11:01:07;;;;;;;30.63;16.83;;;16.20;99.90;;;;;;5080375;28;20481;-68
2023/10/12 11:03:34;;;;;;;31.85;17.00;;;16.10;99.90;;;;;;5077798;28;20401;-68
2023/10/12 11:06:00;;;;;;;31.27;16.52;;;16.10;99.90;;;;;;5083248;28;20063;-68
2023/10/12 11:08:27;;;;;;;33.40;15.57;;;16.20;99.90;;;;;;5084063;28;20074;-68
2023/10/12 11:13:44;;;;;;;34.67;19.55;;;16.20;99.90;;;;;;5079175;28;20747;-71
2023/10/12 11:16:28;;;;;;;32.20;16.38;;;16.30;99.90;;;;;;5076555;28;20031;-71
2023/10/12 11:18:55;;;;;;;32.63;17.45;;;16.30;99.90;;;;;;5082748;28;20148;-71
2023/10/12 11:21:21;;;;;;;30.55;16.38;;;16.40;99.90;;;;;;5086397;28;20578;-71
2023/10/12 11:23:50;;;;;;;30.27;16.75;;;16.50;99.90;;;;;;5084024;28;20032;-71
2023/10/12 11:26:17;;;;;;;39.13;16.50;;;16.40;99.90;;;;;;5084939;28;20036;-72
2023/10/12 11:28:45;;;;;;;35.20;17.30;;;16.50;99.90;;;;;;5088573;28;20031;-71
2023/10/12 11:31:46;;;;;;;31.85;16.33;;;16.50;99.90;;;;;;5090541;28;20490;-69
2023/10/12 11:33:59;;;;;;;34.33;18.33;;;16.50;99.90;;;;;;5080356;28;20058;-70
2023/10/12 11:36:25;;;;;;;29.35;16.58;;;16.50;99.90;;;;;;5086130;28;20016;-69
2023/10/12 11:39:02;;;;;;;35.30;17.55;;;16.50;99.90;;;;;;5088574;28;20040;-68
2023/10/12 11:41:28;;;;;;;32.60;16.85;;;16.60;99.90;;;;;;5084641;28;20035;-68
2023/10/12 11:43:57;;;;;;;34.67;16.33;;;16.60;99.90;;;;;;5080287;28;20032;-71
2023/10/12 11:46:24;;;;;;;33.35;17.05;;;16.60;99.90;;;;;;5081969;28;20028;-72
2023/10/12 11:49:04;;;;;;;34.05;17.95;;;16.50;99.90;;;;;;5079051;28;20089;-71
2023/10/12 11:51:30;;;;;;;34.58;18.20;;;16.60;99.90;;;;;;5088430;28;20131;-70
2023/10/12 11:53:57;;;;;;;43.70;19.40;;;16.70;99.90;;;;;;5076988;28;20229;-67
2023/10/12 11:56:24;;;;;;;37.60;20.70;;;16.70;99.90;;;;;;5079734;28;20119;-69
2023/10/12 11:58:54;;;;;;;36.83;20.30;;;16.70;99.90;;;;;;5081584;28;20035;-69
2023/10/12 12:01:22;;;;;;;38.40;20.63;;;16.80;99.90;;;;;;5083991;28;20032;-68
2023/10/12 12:03:48;;;;;;;35.78;20.23;;;16.80;99.90;;;;;;5082415;28;20516;-71
2023/10/12 12:06:21;;;;;;;35.30;20.17;;;16.90;99.90;;;;;;5077157;28;20039;-68
2023/10/12 12:08:48;;;;;;;36.17;17.83;;;16.80;99.90;;;;;;5081572;28;20781;-69
2023/10/12 12:11:19;;;;;;;35.35;17.10;;;16.90;99.90;;;;;;5086519;28;20129;-68
2023/10/12 12:13:48;;;;;;;27.55;15.55;;;16.90;99.90;;;;;;5081153;28;20500;-68
2023/10/12 12:16:20;;;;;;;32.05;16.77;;;17.00;99.90;;;;;;5082951;28;20020;-68
2023/10/12 12:18:49;;;;;;;30.88;14.23;;;16.90;99.90;;;;;;5079965;28;20182;-68
2023/10/12 12:21:17;;;;;;;27.77;15.40;;;16.90;99.90;;;;;;5078459;28;20406;-68
2023/10/12 12:23:47;;;;;;;34.60;15.63;;;16.90;99.90;;;;;;5079789;28;20720;-68
2023/10/12 12:26:14;;;;;;;29.48;15.07;;;17.00;99.90;;;;;;5076163;28;20055;-69
2023/10/12 12:28:50;;;;;;;37.30;15.55;;;17.10;99.90;;;;;;5085115;28;20055;-71
2023/10/12 12:31:15;;;;;;;30.75;14.48;;;17.30;99.90;;;;;;5073556;28;20029;-68
2023/10/12 12:33:43;;;;;;;25.73;14.65;;;17.40;99.90;;;;;;5084125;28;20386;-68
2023/10/12 12:36:12;;;;;;;29.52;14.23;;;17.40;99.90;;;;;;5080329;28;20020;-68
2023/10/12 12:41:22;;;;;;;27.92;15.38;;;17.50;99.90;;;;;;5060778;28;20414;-68
2023/10/12 12:43:48;;;;;;;30.42;16.40;;;17.60;99.90;;;;;;5039481;28;20033;-68
2023/10/12 12:46:14;;;;;;;34.22;16.17;;;17.50;99.90;;;;;;5037390;28;20074;-67
2023/10/12 12:48:45;;;;;;;33.05;18.13;;;17.60;99.90;;;;;;5053173;28;20029;-68
2023/10/12 12:51:13;;;;;;;36.33;18.02;;;17.60;99.90;;;;;;5035755;28;20021;-68
2023/10/12 12:53:39;;;;;;;26.52;16.20;;;17.70;99.90;;;;;;5035940;28;20556;-68
2023/10/12 12:56:05;;;;;;;26.52;14.10;;;17.70;99.90;;;;;;5040579;28;20037;-69
2023/10/12 12:58:32;;;;;;;28.13;13.95;;;17.70;99.90;;;;;;5039993;28;20044;-71
2023/10/12 13:01:00;;;;;;;27.90;13.75;;;17.50;99.90;;;;;;5043623;28;20108;-69
2023/10/12 13:03:28;;;;;;;34.33;16.77;;;17.60;99.90;;;;;;5041229;28;20533;-68
2023/10/12 13:05:54;;;;;;;27.50;12.63;;;17.70;99.90;;;;;;5040926;28;20021;-68
2023/10/12 13:08:19;;;;;;;24.60;13.07;;;17.50;99.90;;;;;;5046363;28;20475;-68
2023/10/12 13:10:45;;;;;;;21.38;12.07;;;17.60;99.90;;;;;;5040622;28;20033;-68
2023/10/12 13:13:12;;;;;;;25.13;12.88;;;17.50;99.90;;;;;;5038913;28;20471;-72
2023/10/12 13:15:42;;;;;;;27.23;12.25;;;17.70;99.90;;;;;;5045560;28;20076;-68
2023/10/12 13:18:14;;;;;;;24.23;12.18;;;17.50;99.90;;;;;;5044691;28;20036;-69
2023/10/12 13:20:46;;;;;;;26.30;13.07;;;17.60;99.90;;;;;;5047011;28;20033;-69
2023/10/12 13:23:13;;;;;;;26.98;12.82;;;17.70;99.90;;;;;;5044021;28;20033;-67
2023/10/12 13:25:40;;;;;;;24.42;13.00;;;17.50;99.90;;;;;;5040697;28;20029;-67
2023/10/12 13:28:05;;;;;;;27.40;13.05;;;17.50;99.90;;;;;;5040812;28;20029;-69
2023/10/12 13:30:31;;;;;;;25.88;12.63;;;17.50;99.90;;;;;;5042915;28;20033;-69
2023/10/12 13:32:59;;;;;;;24.45;12.50;;;17.10;99.90;;;;;;5038257;28;20140;-70
2023/10/12 13:35:31;;;;;;;26.17;14.13;;;17.40;99.90;;;;;;5035197;28;20032;-70
2023/10/12 13:38:02;;;;;;;24.83;13.88;;;17.60;99.90;;;;;;5033979;28;20543;-68
2023/10/12 13:40:29;;;;;;;33.05;14.43;;;17.30;99.90;;;;;;5043446;28;20045;-69
2023/10/12 13:43:01;;;;;;;29.17;14.98;;;17.30;99.90;;;;;;5043467;28;20474;-68
2023/10/12 13:45:28;;;;;;;29.05;14.90;;;17.30;99.90;;;;;;5045864;28;20146;-72
2023/10/12 13:47:54;;;;;;;28.85;15.38;;;17.20;99.90;;;;;;5050431;28;20029;-67
2023/10/12 13:50:20;;;;;;;29.00;15.38;;;17.60;99.90;;;;;;5045466;28;20072;-69
2023/10/12 13:52:45;;;;;;;29.45;15.27;;;17.20;99.90;;;;;;5021495;28;20069;-69
2023/10/12 13:55:13;;;;;;;26.45;15.85;;;17.10;99.90;;;;;;5024444;28;20040;-70
2023/10/12 13:58:02;;;;;;;28.50;15.60;;;17.20;99.90;;;;;;5038987;28;20033;-69
2023/10/12 14:00:33;;;;;;;27.13;15.75;;;17.30;99.90;;;;;;5027152;28;20045;-69
2023/10/12 14:03:10;;;;;;;31.52;15.48;;;17.10;99.90;;;;;;5030154;28;20030;-68
2023/10/12 14:05:40;;;;;;;24.33;15.45;;;17.20;99.90;;;;;;5029100;28;20108;-67
2023/10/12 14:08:08;;;;;;;31.20;16.70;;;17.00;99.90;;;;;;5026895;28;20133;-70
2023/10/12 14:10:41;;;;;;;34.92;15.68;;;17.10;99.90;;;;;;5026472;28;20037;-67
2023/10/12 14:13:07;;;;;;;28.10;15.23;;;17.10;99.90;;;;;;5020523;28;20028;-68
2023/10/12 14:15:35;;;;;;;30.35;15.45;;;16.90;99.90;;;;;;5023373;28;20539;-69
2023/10/12 14:18:02;;;;;;;33.40;15.13;;;16.80;99.90;;;;;;5036617;28;20036;-68
2023/10/12 14:20:28;;;;;;;30.15;14.98;;;16.90;99.90;;;;;;5022615;28;20223;-67
2023/10/12 14:22:58;;;;;;;30.45;13.88;;;16.90;99.90;;;;;;5030174;28;20022;-69
2023/10/12 14:25:28;;;;;;;25.00;14.23;;;16.90;99.90;;;;;;5026570;28;20152;-69
2023/10/12 14:27:54;;;;;;;27.65;14.50;;;17.00;99.90;;;;;;5030012;28;20108;-71